createdAt,value
2018-08-20T00:02:03.135Z,21.50
2018-08-20T00:04:31.158Z,21.50
2018-08-20T00:06:59.023Z,21.60
2018-08-20T00:09:26.018Z,21.60
2018-08-20T00:11:53.078Z,21.70
2018-08-20T00:14:20.094Z,21.60
2018-08-20T00:16:47.105Z,21.50
2018-08-20T00:21:42.092Z,21.60
2018-08-20T00:24:09.091Z,21.60
2018-08-20T00:26:36.142Z,21.40
2018-08-20T00:31:39.631Z,21.30
2018-08-20T00:34:07.556Z,21.50
2018-08-20T00:36:34.557Z,21.50
2018-08-20T00:39:01.624Z,21.50
2018-08-20T00:41:28.656Z,21.60
2018-08-20T00:43:55.670Z,21.60
2018-08-20T00:46:22.707Z,21.60
2018-08-20T00:48:49.712Z,21.60
2018-08-20T00:51:16.724Z,21.60
2018-08-20T00:53:44.592Z,21.50
2018-08-20T00:56:12.508Z,21.40
2018-08-20T00:58:39.535Z,21.40
2018-08-20T01:01:06.572Z,21.40
2018-08-20T01:03:34.534Z,21.50
2018-08-20T01:06:01.536Z,21.60
2018-08-20T01:08:28.595Z,21.60
2018-08-20T01:13:23.567Z,21.60
2018-08-20T01:15:50.614Z,21.70
2018-08-20T01:18:17.620Z,21.70
2018-08-20T01:20:44.642Z,21.70
2018-08-20T01:25:38.789Z,21.70
2018-08-20T01:28:06.630Z,21.60
2018-08-20T01:30:33.671Z,21.60
2018-08-20T01:33:00.691Z,21.70
2018-08-20T01:37:54.843Z,21.60
2018-08-20T01:40:21.857Z,21.60
2018-08-20T01:42:48.863Z,21.50
2018-08-20T01:45:15.916Z,21.60
2018-08-20T01:47:42.916Z,21.40
2018-08-20T01:52:48.472Z,21.30
2018-08-20T01:55:15.470Z,21.40
2018-08-20T02:00:09.607Z,21.30
2018-08-20T02:02:36.610Z,21.00
2018-08-20T02:05:03.629Z,20.90
2018-08-20T02:07:31.576Z,21.00
2018-08-20T02:09:59.532Z,21.10
2018-08-20T02:12:27.363Z,20.90
2018-08-20T02:14:55.239Z,21.00
2018-08-20T02:17:22.229Z,21.00
2018-08-20T02:19:49.243Z,21.00
2018-08-20T02:22:16.285Z,21.00
2018-08-20T02:24:43.298Z,20.90
2018-08-20T02:27:10.310Z,20.80
2018-08-20T02:29:37.368Z,20.80
2018-08-20T02:32:04.358Z,20.80
2018-08-20T02:34:31.372Z,20.80
2018-08-20T02:39:26.233Z,20.80
2018-08-20T02:41:54.174Z,20.80
2018-08-20T02:44:22.047Z,20.70
2018-08-20T02:49:29.441Z,20.60
2018-08-20T02:51:57.318Z,20.50
2018-08-20T02:54:25.136Z,20.60
2018-08-20T02:56:52.189Z,20.70
2018-08-20T02:59:19.175Z,20.60
2018-08-20T03:01:46.178Z,20.60
2018-08-20T03:04:13.205Z,20.70
2018-08-20T03:06:40.200Z,20.60
2018-08-20T03:09:07.219Z,20.60
2018-08-20T03:11:34.251Z,20.60
2018-08-20T03:14:01.265Z,20.60
2018-08-20T03:16:28.345Z,20.60
2018-08-20T03:21:22.387Z,20.60
2018-08-20T03:23:50.215Z,20.60
2018-08-20T03:26:17.264Z,20.70
2018-08-20T03:28:44.273Z,20.70
2018-08-20T03:31:11.313Z,20.60
2018-08-20T03:33:39.183Z,20.60
2018-08-20T03:36:07.135Z,20.60
2018-08-20T03:38:34.125Z,20.60
2018-08-20T03:41:01.166Z,20.60
2018-08-20T03:43:28.182Z,20.60
2018-08-20T03:45:55.178Z,20.50
2018-08-20T03:48:22.251Z,20.60
2018-08-20T03:50:49.207Z,20.60
2018-08-20T03:53:17.204Z,20.60
2018-08-20T03:55:45.271Z,20.50
2018-08-20T03:58:12.288Z,20.50
2018-08-20T04:00:39.294Z,20.40
2018-08-20T04:03:06.324Z,20.50
2018-08-20T04:05:33.330Z,20.40
2018-08-20T04:08:00.358Z,20.40
2018-08-20T04:10:27.390Z,20.40
2018-08-20T04:15:35.798Z,20.30
2018-08-20T04:20:30.918Z,20.30
2018-08-20T04:22:57.907Z,20.20
2018-08-20T04:25:24.908Z,20.20
2018-08-20T04:27:51.925Z,20.30
2018-08-20T04:30:18.948Z,20.20
2018-08-20T04:32:46.778Z,20.10
2018-08-20T04:35:13.757Z,20.20
2018-08-20T04:37:40.784Z,20.20
2018-08-20T04:40:07.782Z,20.20
2018-08-20T04:42:34.905Z,20.30
2018-08-20T04:45:02.871Z,20.30
2018-08-20T04:47:30.802Z,20.30
2018-08-20T04:49:57.919Z,20.30
2018-08-20T04:52:24.866Z,20.30
2018-08-20T04:57:20.070Z,20.20
2018-08-20T04:59:47.093Z,20.30
2018-08-20T05:02:17.341Z,20.20
2018-08-20T05:04:43.246Z,20.10
2018-08-20T05:07:10.284Z,20.30
2018-08-20T05:09:37.315Z,20.20
2018-08-20T05:12:04.303Z,20.30
2018-08-20T05:14:31.353Z,20.30
2018-08-20T05:19:30.231Z,20.40
2018-08-20T05:21:55.426Z,20.40
2018-08-20T05:24:22.439Z,20.50
2018-08-20T05:26:49.485Z,20.50
2018-08-20T05:29:16.599Z,20.60
2018-08-20T05:31:44.501Z,20.50
2018-08-20T05:36:50.928Z,20.50
2018-08-20T05:39:17.914Z,20.60
2018-08-20T05:41:44.929Z,20.70
2018-08-20T05:44:11.975Z,20.20
2018-08-20T05:46:39.798Z,20.20
2018-08-20T05:49:06.794Z,20.20
2018-08-20T05:51:34.052Z,19.90
2018-08-20T05:56:39.559Z,19.90
2018-08-20T05:59:06.587Z,19.90
2018-08-20T06:01:33.552Z,20.30
2018-08-20T06:04:01.119Z,20.50
2018-08-20T06:06:30.150Z,20.50
2018-08-20T06:08:57.136Z,20.50
2018-08-20T06:11:24.304Z,20.40
2018-08-20T06:13:52.880Z,20.60
2018-08-20T06:16:19.868Z,20.50
2018-08-20T06:18:47.703Z,20.50
2018-08-20T06:21:14.729Z,20.50
2018-08-20T06:23:41.751Z,20.60
2018-08-20T06:26:08.799Z,20.60
2018-08-20T06:28:35.856Z,20.50
2018-08-20T06:31:02.805Z,20.80
2018-08-20T06:33:29.856Z,20.30
2018-08-20T06:35:56.932Z,20.30
2018-08-20T06:38:23.934Z,20.60
2018-08-20T06:40:50.944Z,20.50
2018-08-20T06:43:17.939Z,20.90
2018-08-20T06:45:44.928Z,21.10
2018-08-20T06:48:11.963Z,21.40
2018-08-20T06:50:38.963Z,21.80
2018-08-20T06:53:05.980Z,21.90
2018-08-20T06:55:33.009Z,21.90
2018-08-20T06:58:00.529Z,21.70
2018-08-20T07:00:27.548Z,21.60
2018-08-20T07:02:54.597Z,21.40
2018-08-20T07:05:21.608Z,21.40
2018-08-20T07:07:48.631Z,21.40
2018-08-20T07:10:16.625Z,21.50
2018-08-20T07:15:22.139Z,21.90
2018-08-20T07:17:49.966Z,22.20
2018-08-20T07:20:17.401Z,22.40
2018-08-20T07:22:45.084Z,22.80
2018-08-20T07:25:12.024Z,22.90
2018-08-20T07:27:40.452Z,22.60
2018-08-20T07:30:07.408Z,22.50
2018-08-20T07:32:34.408Z,22.30
2018-08-20T07:35:01.993Z,22.80
2018-08-20T07:37:29.710Z,23.40
2018-08-20T07:39:57.571Z,23.80
2018-08-20T07:42:24.632Z,24.10
2018-08-20T07:44:51.628Z,23.80
2018-08-20T07:47:19.219Z,23.70
2018-08-20T07:49:46.236Z,23.70
2018-08-20T07:54:41.198Z,23.70
2018-08-20T07:57:08.190Z,23.70
2018-08-20T07:59:35.242Z,23.60
2018-08-20T08:02:03.097Z,23.30
2018-08-20T08:04:30.185Z,23.30
2018-08-20T08:06:57.244Z,23.30
2018-08-20T08:09:25.290Z,23.50
2018-08-20T08:19:14.927Z,24.30
2018-08-20T08:21:42.944Z,24.10
2018-08-20T08:24:09.938Z,24.00
2018-08-20T08:26:36.939Z,24.30
2018-08-20T08:29:03.965Z,24.10
2018-08-20T08:34:12.397Z,25.10
2018-08-20T08:36:39.391Z,25.40
2018-08-20T08:39:06.393Z,25.40
2018-08-20T08:41:33.964Z,25.80
2018-08-20T08:44:01.922Z,25.90
2018-08-20T08:48:56.063Z,26.30
2018-08-20T08:51:23.054Z,26.60
2018-08-20T08:53:50.082Z,26.90
2018-08-20T08:56:17.108Z,26.60
2018-08-20T08:58:44.122Z,26.50
2018-08-20T09:01:11.177Z,26.80
2018-08-20T09:03:38.495Z,26.90
2018-08-20T09:08:32.630Z,27.00
2018-08-20T09:10:59.668Z,26.90
2018-08-20T09:13:26.671Z,27.40
2018-08-20T09:15:53.680Z,27.90
2018-08-20T09:18:20.721Z,27.00
2018-08-20T09:20:48.671Z,27.40
2018-08-20T09:23:15.678Z,27.60
2018-08-20T09:25:42.724Z,27.50
2018-08-20T09:28:09.750Z,27.90
2018-08-20T09:30:36.753Z,27.10
2018-08-20T09:33:03.801Z,27.40
2018-08-20T09:35:30.808Z,27.40
2018-08-20T09:40:25.077Z,27.60
2018-08-20T09:42:52.800Z,28.00
2018-08-20T09:47:58.309Z,28.00
2018-08-20T09:50:25.337Z,28.00
2018-08-20T09:52:53.160Z,28.30
2018-08-20T09:55:20.193Z,28.80
2018-08-20T09:57:47.909Z,28.80
2018-08-20T10:00:14.928Z,29.00
2018-08-20T10:02:43.307Z,29.30
2018-08-20T10:05:10.307Z,29.40
2018-08-20T10:07:37.298Z,29.70
2018-08-20T10:10:05.187Z,28.80
2018-08-20T10:12:33.086Z,28.80
2018-08-20T10:17:27.211Z,29.30
2018-08-20T10:19:55.084Z,29.70
2018-08-20T10:22:22.077Z,29.70
2018-08-20T10:24:49.938Z,29.80
2018-08-20T10:27:16.949Z,29.40
2018-08-20T10:29:43.956Z,29.50
2018-08-20T10:32:11.463Z,30.30
2018-08-20T10:34:38.397Z,30.50
2018-08-20T10:37:05.402Z,30.40
2018-08-20T10:39:32.435Z,30.30
2018-08-20T10:41:59.782Z,30.30
2018-08-20T10:44:26.788Z,30.30
2018-08-20T10:46:53.838Z,30.40
2018-08-20T10:49:20.854Z,30.20
2018-08-20T10:51:47.854Z,30.10
2018-08-20T10:54:14.894Z,30.40
2018-08-20T10:56:41.883Z,31.10
2018-08-20T10:59:10.964Z,31.30
2018-08-20T11:01:36.912Z,30.50
2018-08-20T11:04:04.792Z,30.90
2018-08-20T11:09:13.305Z,30.70
2018-08-20T11:11:40.275Z,30.80
2018-08-20T11:14:07.279Z,30.70
2018-08-20T11:16:35.297Z,30.30
2018-08-20T11:19:02.313Z,31.00
2018-08-20T11:21:29.321Z,29.90
2018-08-20T11:23:56.371Z,30.20
2018-08-20T11:28:50.491Z,30.50
2018-08-20T11:31:17.538Z,30.10
2018-08-20T11:33:44.551Z,30.20
2018-08-20T11:36:11.552Z,31.00
2018-08-20T11:38:38.599Z,30.80
2018-08-20T11:41:06.418Z,30.50
2018-08-20T11:43:33.437Z,30.30
2018-08-20T11:46:00.489Z,30.40
2018-08-20T11:48:27.511Z,30.60
2018-08-20T11:50:55.468Z,31.10
2018-08-20T11:53:22.525Z,31.30
2018-08-20T11:55:49.550Z,31.60
2018-08-20T11:58:16.551Z,31.50
2018-08-20T12:00:44.558Z,31.00
2018-08-20T12:03:14.848Z,31.50
2018-08-20T12:05:42.590Z,31.70
2018-08-20T12:08:09.650Z,31.60
2018-08-20T12:15:43.581Z,31.00
2018-08-20T12:18:10.602Z,31.20
2018-08-20T12:23:46.704Z,30.70
2018-08-20T12:26:13.719Z,31.40
2018-08-20T12:28:40.738Z,31.90
2018-08-20T12:31:07.797Z,32.30
2018-08-20T12:33:38.659Z,31.40
2018-08-20T12:36:05.684Z,32.00
2018-08-20T12:38:33.734Z,31.50
2018-08-20T12:41:01.737Z,31.70
2018-08-20T12:43:29.304Z,31.70
2018-08-20T12:45:57.278Z,31.70
2018-08-20T12:48:24.297Z,31.50
2018-08-20T12:50:52.053Z,31.70
2018-08-20T13:01:32.853Z,31.20
2018-08-20T13:03:59.903Z,31.60
2018-08-20T13:06:26.935Z,31.50
2018-08-20T13:08:53.978Z,31.50
2018-08-20T13:13:49.132Z,31.40
2018-08-20T13:16:16.205Z,31.40
2018-08-20T13:18:43.213Z,31.00
2018-08-20T13:21:10.250Z,30.90
2018-08-20T13:23:37.252Z,30.80
2018-08-20T13:26:04.326Z,31.00
2018-08-20T13:28:31.330Z,31.40
2018-08-20T13:30:58.346Z,31.40
2018-08-20T13:33:25.405Z,31.30
2018-08-20T13:35:52.420Z,31.30
2018-08-20T13:38:19.430Z,31.10
2018-08-20T13:40:47.386Z,31.10
2018-08-20T13:43:14.410Z,31.20
2018-08-20T13:45:41.415Z,31.30
2018-08-20T13:48:08.484Z,31.30
2018-08-20T13:50:36.233Z,31.30
2018-08-20T13:53:03.248Z,31.00
2018-08-20T13:55:30.290Z,31.10
2018-08-20T13:57:58.272Z,31.50
2018-08-20T14:00:26.269Z,31.60
2018-08-20T14:02:55.524Z,31.90
2018-08-20T14:05:22.585Z,31.90
2018-08-20T14:07:49.616Z,32.00
2018-08-20T14:13:06.710Z,31.70
2018-08-20T14:15:42.631Z,31.30
2018-08-20T14:18:10.100Z,31.90
2018-08-20T14:20:37.685Z,31.00
2018-08-20T14:23:05.303Z,30.80
2018-08-20T14:25:33.244Z,30.30
2018-08-20T14:28:03.063Z,29.40
2018-08-20T14:30:28.687Z,29.00
2018-08-20T14:32:55.648Z,29.00
2018-08-20T14:35:22.647Z,28.80
2018-08-20T14:37:50.526Z,28.90
2018-08-20T14:40:17.525Z,28.60
2018-08-20T14:42:44.517Z,28.10
2018-08-20T14:45:12.365Z,27.90
2018-08-20T14:47:39.398Z,28.20
2018-08-20T14:50:06.373Z,28.50
2018-08-20T14:52:33.411Z,28.70
2018-08-20T14:55:01.389Z,28.90
2018-08-20T14:57:28.403Z,28.50
2018-08-20T15:04:49.653Z,28.40
2018-08-20T15:07:16.703Z,28.20
2018-08-20T15:09:43.747Z,28.10
2018-08-20T15:12:10.751Z,28.00
2018-08-20T15:14:37.797Z,28.20
2018-08-20T15:17:04.789Z,28.60
2018-08-20T15:19:31.784Z,28.70
2018-08-20T15:21:58.827Z,29.10
2018-08-20T15:24:25.837Z,29.20
2018-08-20T15:26:52.849Z,29.10
2018-08-20T15:29:19.896Z,29.30
2018-08-20T15:34:27.410Z,29.40
2018-08-20T15:36:54.416Z,29.60
2018-08-20T15:39:22.364Z,30.00
2018-08-20T15:41:49.375Z,29.90
2018-08-20T15:44:17.254Z,29.90
2018-08-20T15:46:44.319Z,29.50
2018-08-20T15:49:11.357Z,29.30
2018-08-20T15:51:39.206Z,29.30
2018-08-20T15:54:07.163Z,29.50
2018-08-20T15:56:34.184Z,29.10
2018-08-20T15:59:02.037Z,29.00
2018-08-20T16:01:29.058Z,28.80
2018-08-20T16:03:56.989Z,29.00
2018-08-20T16:06:24.004Z,29.10
2018-08-20T16:08:51.996Z,28.80
2018-08-20T16:11:19.472Z,28.80
2018-08-20T16:13:46.485Z,28.80
2018-08-20T16:16:14.320Z,28.70
2018-08-20T16:18:41.376Z,28.70
2018-08-20T16:21:08.371Z,28.80
2018-08-20T16:23:35.371Z,28.70
2018-08-20T16:26:03.379Z,28.40
2018-08-20T16:28:30.401Z,28.40
2018-08-20T16:33:37.611Z,28.20
2018-08-20T16:36:04.614Z,28.20
2018-08-20T16:38:31.627Z,28.30
2018-08-20T16:40:58.669Z,28.20
2018-08-20T16:43:25.704Z,28.20
2018-08-20T16:45:52.720Z,28.10
2018-08-20T16:48:20.717Z,28.00
2018-08-20T16:50:47.699Z,28.00
2018-08-20T16:53:14.795Z,27.90
2018-08-20T16:58:10.774Z,27.90
2018-08-20T17:00:38.692Z,27.80
2018-08-20T17:03:06.597Z,27.70
2018-08-20T17:05:33.666Z,27.70
2018-08-20T17:08:01.498Z,27.60
2018-08-20T17:10:28.567Z,27.50
2018-08-20T17:12:55.569Z,27.40
2018-08-20T17:15:22.585Z,27.40
2018-08-20T17:17:49.641Z,27.40
2018-08-20T17:20:16.662Z,27.40
2018-08-20T17:22:43.674Z,27.40
2018-08-20T17:25:11.591Z,27.40
2018-08-20T17:27:38.604Z,27.50
2018-08-20T17:30:06.383Z,27.60
2018-08-20T17:32:33.429Z,27.50
2018-08-20T17:37:41.926Z,27.40
2018-08-20T17:40:08.933Z,27.40
2018-08-20T17:42:36.967Z,27.40
2018-08-20T17:45:04.803Z,27.50
2018-08-20T17:47:31.831Z,27.40
2018-08-20T17:49:58.864Z,27.30
2018-08-20T17:54:53.048Z,27.10
2018-08-20T17:57:20.070Z,27.10
2018-08-20T17:59:47.115Z,27.20
2018-08-20T18:02:14.115Z,27.30
2018-08-20T18:04:41.126Z,27.20
2018-08-20T18:07:09.668Z,27.20
2018-08-20T18:09:37.663Z,27.20
2018-08-20T18:12:04.677Z,27.10
2018-08-20T18:14:31.907Z,27.10
2018-08-20T18:16:59.728Z,27.10
2018-08-20T18:19:27.399Z,27.10
2018-08-20T18:24:21.648Z,27.20
2018-08-20T18:26:53.662Z,27.20
2018-08-20T18:29:20.900Z,27.10
2018-08-20T18:31:48.461Z,27.10
2018-08-20T18:34:16.694Z,26.90
2018-08-20T18:36:44.604Z,26.80
2018-08-20T18:39:11.630Z,26.70
2018-08-20T18:44:19.089Z,26.70
2018-08-20T18:46:47.056Z,26.90
2018-08-20T18:49:14.539Z,26.90
2018-08-20T18:51:42.126Z,27.00
2018-08-20T18:54:10.051Z,27.10
2018-08-20T18:56:37.954Z,27.10
2018-08-20T18:59:05.325Z,27.20
2018-08-20T19:01:32.346Z,26.90
2018-08-20T19:03:59.361Z,27.10
2018-08-20T19:06:26.412Z,27.10
2018-08-20T19:08:54.317Z,27.10
2018-08-20T19:11:21.348Z,27.00
2018-08-20T19:13:48.938Z,27.10
2018-08-20T19:18:43.582Z,27.00
2018-08-20T19:21:12.362Z,26.90
2018-08-20T19:23:39.438Z,26.90
2018-08-20T19:26:06.469Z,26.50
2018-08-20T19:28:34.625Z,26.40
2018-08-20T19:33:43.522Z,26.30
2018-08-20T19:36:10.636Z,26.40
2018-08-20T19:38:37.611Z,26.40
2018-08-20T19:43:31.726Z,26.50
2018-08-20T19:45:58.816Z,26.40
2018-08-20T19:48:25.838Z,26.40
2018-08-20T19:50:52.870Z,26.40
2018-08-20T19:55:58.849Z,26.30
2018-08-20T19:58:25.939Z,26.30
2018-08-20T20:00:52.902Z,26.30
2018-08-20T20:03:20.558Z,26.20
2018-08-20T20:05:47.587Z,26.30
2018-08-20T20:08:14.638Z,26.20
2018-08-20T20:10:41.705Z,26.10
2018-08-20T20:13:08.733Z,26.00
2018-08-20T20:15:35.799Z,26.00
2018-08-20T20:18:02.804Z,26.00
2018-08-20T20:20:29.794Z,26.00
2018-08-20T20:22:56.861Z,25.90
2018-08-20T20:25:24.708Z,25.70
2018-08-20T20:27:51.484Z,25.50
2018-08-20T20:30:18.552Z,25.60
2018-08-20T20:32:45.578Z,25.70
2018-08-20T20:35:13.812Z,25.70
2018-08-20T20:37:40.713Z,25.70
2018-08-20T20:40:07.762Z,25.70
2018-08-20T20:42:34.891Z,25.60
2018-08-20T20:45:02.609Z,25.60
2018-08-20T20:49:57.176Z,25.40
2018-08-20T20:52:24.302Z,25.40
2018-08-20T20:54:51.911Z,25.30
2018-08-20T20:57:19.443Z,25.40
2018-08-20T20:59:46.753Z,25.30
2018-08-20T21:02:13.749Z,25.20
2018-08-20T21:04:40.747Z,25.00
2018-08-20T21:07:07.789Z,25.00
2018-08-20T21:09:34.840Z,24.90
2018-08-20T21:12:02.629Z,25.00
2018-08-20T21:14:29.399Z,25.00
2018-08-20T21:19:37.637Z,24.80
2018-08-20T21:22:04.657Z,24.90
2018-08-20T21:24:31.684Z,24.90
2018-08-20T21:26:58.731Z,24.80
2018-08-20T21:29:26.377Z,24.70
2018-08-20T21:31:54.076Z,24.50
2018-08-20T21:34:21.208Z,24.40
2018-08-20T21:36:48.233Z,24.50
2018-08-20T21:39:15.243Z,24.50
2018-08-20T21:41:42.291Z,24.40
2018-08-20T21:44:09.386Z,24.50
2018-08-20T21:46:36.400Z,24.50
2018-08-20T21:49:04.114Z,24.30
2018-08-20T21:51:30.992Z,24.20
2018-08-20T21:53:58.028Z,24.30
2018-08-20T21:56:25.082Z,23.90
2018-08-20T21:58:52.108Z,24.00
2018-08-20T22:03:47.423Z,23.90
2018-08-20T22:06:15.127Z,23.80
2018-08-20T22:08:42.136Z,23.90
2018-08-20T22:11:10.456Z,23.90
2018-08-20T22:13:37.465Z,23.90
2018-08-20T22:16:04.721Z,23.80
2018-08-20T22:18:31.746Z,23.80
2018-08-20T22:25:52.874Z,23.80
2018-08-20T22:33:31.299Z,23.70
2018-08-20T22:35:58.295Z,23.80
2018-08-20T22:38:28.273Z,23.70
2018-08-20T22:40:55.903Z,23.70
2018-08-20T22:43:22.909Z,23.60
2018-08-20T22:45:50.746Z,23.30
2018-08-20T22:48:19.255Z,23.20
2018-08-20T22:50:47.079Z,23.20
2018-08-20T22:53:15.056Z,23.20
2018-08-20T22:55:43.034Z,23.10
2018-08-20T22:58:10.881Z,23.10
2018-08-20T23:00:38.821Z,23.20
2018-08-20T23:03:05.859Z,23.20
2018-08-20T23:05:32.846Z,23.10
2018-08-20T23:07:59.851Z,23.20
2018-08-20T23:10:27.712Z,23.20
2018-08-20T23:12:54.717Z,23.10
2018-08-20T23:15:21.708Z,23.10
2018-08-20T23:17:48.750Z,22.80
2018-08-20T23:20:16.521Z,22.60
2018-08-20T23:22:43.954Z,22.60
2018-08-20T23:25:10.573Z,22.60
2018-08-20T23:27:37.574Z,22.60
2018-08-20T23:30:04.586Z,22.60
2018-08-20T23:32:31.609Z,22.70
2018-08-20T23:34:58.622Z,22.60
2018-08-20T23:37:25.612Z,22.60
2018-08-20T23:39:52.654Z,22.50
2018-08-20T23:42:19.665Z,22.50
2018-08-20T23:49:42.693Z,22.50
2018-08-20T23:54:50.129Z,22.50
2018-08-20T23:57:17.146Z,22.60
2018-08-20T23:59:45.098Z,22.50
